Home > Products > Valid Products > TAF

000
FTUS41 KBGM 251130
TAFITH
TAF
KITH 251130Z 2512/2612 13004KT P6SM OVC100
     FM251400 18009KT P6SM BKN120
     FM251700 21010G17KT P6SM SCT100 BKN200
     FM252300 18009KT P6SM SCT090 BKN150=



000
FTUS41 KBGM 251130
TAFELM
TAF
KELM 251130Z 2512/2612 VRB03KT P6SM BKN100
     FM251400 23007KT P6SM SCT120
     FM251600 23010G18KT P6SM SCT120 BKN200
     FM252300 23005KT P6SM SCT050 BKN100=



000
FTUS41 KBGM 251130
TAFBGM
TAF
KBGM 251130Z 2512/2612 18006KT P6SM OVC100
     FM251500 22010G18KT P6SM SCT100 BKN200
     FM260000 22009KT P6SM SCT050 OVC120=



000
FTUS41 KBGM 251130
TAFAVP
TAF
KAVP 251130Z 2512/2612 22007KT P6SM SCT120
     FM251700 22010G18KT P6SM SCT200
     FM260000 22007KT P6SM SCT100 BKN150=



000
FTUS41 KBGM 251130
TAFSYR
TAF
KSYR 251130Z 2512/2612 11004KT P6SM SCT070 OVC100
     FM251400 16009KT P6SM BKN120
     FM251700 23012G18KT P6SM SCT100 BKN200
     FM252300 22009KT P6SM BKN100 OVC200=



000
FTUS41 KBGM 250846 AAA
TAFAVP
TAF AMD
KAVP 250846Z 2509/2606 VRB03KT P6SM SCT150 BKN200
     FM251300 23008KT P6SM SCT200
     FM251700 22010G18KT P6SM SCT200
     FM260000 22007KT P6SM BKN150=



000
FTUS41 KBGM 250846 AAA
TAFSYR
TAF AMD
KSYR 250846Z 2509/2606 13004KT P6SM OVC100
      TEMPO 2509/2511 -SHRA OVC080
     FM251400 16009KT P6SM BKN120
     FM251700 23012G18KT P6SM SCT100 BKN200
     FM252300 20009KT P6SM BKN100 OVC200=



000
FTUS41 KBGM 250846 AAA
TAFELM
TAF AMD
KELM 250846Z 2509/2606 00000KT P6SM BKN120
     FM251300 23007KT P6SM SCT120
     FM251600 23010G18KT P6SM SCT120 BKN200
     FM252300 23007KT P6SM SCT090 OVC150=



000
FTUS41 KBGM 250846 AAA
TAFBGM
TAF AMD
KBGM 250846Z 2509/2606 19006KT P6SM BKN100
     FM251500 22010G18KT P6SM SCT100 BKN200
     FM260000 21009KT P6SM SCT100 OVC150=



000
FTUS41 KBGM 250846 AAA
TAFITH
TAF AMD
KITH 250846Z 2509/2606 11004KT P6SM OVC100
     FM251300 18009KT P6SM BKN150
     FM251700 21010G17KT P6SM SCT100 BKN200
     FM252300 18009KT P6SM SCT090 BKN150=



000
FTUS41 KBGM 250846 AAA
TAFBGM
TAF AMD
KBGM 250846Z 2509/2606 19006KT P6SM BKN100
     FM251500 22010G18KT P6SM SCT100 BKN200
     FM260000 21009KT P6SM SCT100 OVC150=



000
FTUS41 KBGM 250846 AAA
TAFSYR
TAF AMD
KSYR 250846Z 2509/2606 13004KT P6SM OVC100
      TEMPO 2509/2511 -SHRA OVC080
     FM251400 16009KT P6SM BKN120
     FM251700 23012G18KT P6SM SCT100 BKN200
     FM252300 20009KT P6SM BKN100 OVC200=



000
FTUS41 KBGM 250846 AAA
TAFELM
TAF AMD
KELM 250846Z 2509/2606 00000KT P6SM BKN120
     FM251300 23007KT P6SM SCT120
     FM251600 23010G18KT P6SM SCT120 BKN200
     FM252300 23007KT P6SM SCT090 OVC150=



000
FTUS41 KBGM 250846 AAA
TAFAVP
TAF AMD
KAVP 250846Z 2509/2606 VRB03KT P6SM SCT150 BKN200
     FM251300 23008KT P6SM SCT200
     FM251700 22010G18KT P6SM SCT200
     FM260000 22007KT P6SM BKN150=



000
FTUS41 KBGM 250846 AAA
TAFITH
TAF AMD
KITH 250846Z 2509/2606 11004KT P6SM OVC100
     FM251300 18009KT P6SM BKN150
     FM251700 21010G17KT P6SM SCT100 BKN200
     FM252300 18009KT P6SM SCT090 BKN150=



000
FTUS41 KBGM 250538
TAFSYR
TAF
KSYR 250538Z 2506/2606 13004KT P6SM OVC090
     FM251400 16009KT P6SM BKN120
     FM251700 23012G18KT P6SM SCT100 BKN200
     FM252300 20009KT P6SM BKN100 OVC200=



000
FTUS41 KBGM 250538
TAFAVP
TAF
KAVP 250538Z 2506/2606 VRB03KT P6SM SCT150 BKN200
     FM251300 23008KT P6SM SCT200
     FM251700 22010G18KT P6SM SCT200
     FM260000 22007KT P6SM BKN150=



000
FTUS41 KBGM 250538
TAFITH
TAF
KITH 250538Z 2506/2606 11004KT P6SM OVC100
     FM251300 18009KT P6SM BKN150
     FM251700 21010G17KT P6SM SCT100 BKN200
     FM252300 18009KT P6SM SCT090 BKN150=



000
FTUS41 KBGM 250538
TAFELM
TAF
KELM 250538Z 2506/2606 00000KT P6SM BKN120
     FM251300 23007KT P6SM SCT120
     FM251600 23010G18KT P6SM SCT120 BKN200
     FM252300 23007KT P6SM SCT090 OVC150=



000
FTUS41 KBGM 250538
TAFBGM
TAF
KBGM 250538Z 2506/2606 19006KT P6SM BKN100
     FM251500 22010G18KT P6SM SCT100 BKN200
     FM260000 21009KT P6SM SCT100 OVC150=



000
FTUS41 KBGM 242325
TAFELM
TAF
KELM 242325Z 2500/2524 VRB03KT P6SM SCT090 BKN200
     FM250600 00000KT P6SM BKN060 OVC100
     FM251400 23011KT P6SM SCT060 BKN200=



000
FTUS41 KBGM 242325
TAFITH
TAF
KITH 242325Z 2500/2524 VRB05KT P6SM SCT070 BKN200
     FM250700 12004KT P6SM OVC090
     FM251400 19009KT P6SM OVC090
     FM251700 20011KT P6SM BKN090 BKN200=



000
FTUS41 KBGM 242325
TAFSYR
TAF
KSYR 242325Z 2500/2524 VRB06KT P6SM BKN200
     FM250800 13004KT P6SM OVC100
     FM251400 16009KT P6SM OVC100
     FM251700 20011KT P6SM OVC060=



000
FTUS41 KBGM 242325
TAFAVP
TAF
KAVP 242325Z 2500/2524 VRB06KT P6SM SCT080 BKN200
     FM250600 VRB03KT P6SM BKN200
     FM251400 22011KT P6SM BKN200=



000
FTUS41 KBGM 242325
TAFBGM
TAF
KBGM 242325Z 2500/2524 20005KT P6SM BKN200
     FM250800 17007KT P6SM BKN100
     FM251400 21011KT P6SM SCT100 BKN200=



000
FTUS41 KBGM 242325
TAFAVP
TAF
KAVP 242325Z 2500/2524 VRB06KT P6SM SCT080 BKN200
     FM250600 VRB03KT P6SM BKN200
     FM251400 22011KT P6SM BKN200=



000
FTUS41 KBGM 242325
TAFBGM
TAF
KBGM 242325Z 2500/2524 20005KT P6SM BKN200
     FM250800 17007KT P6SM BKN100
     FM251400 21011KT P6SM SCT100 BKN200=



000
FTUS41 KBGM 242325
TAFSYR
TAF
KSYR 242325Z 2500/2524 VRB06KT P6SM BKN200
     FM250800 13004KT P6SM OVC100
     FM251400 16009KT P6SM OVC100
     FM251700 20011KT P6SM OVC060=



000
FTUS41 KBGM 242325
TAFELM
TAF
KELM 242325Z 2500/2524 VRB03KT P6SM SCT090 BKN200
     FM250600 00000KT P6SM BKN060 OVC100
     FM251400 23011KT P6SM SCT060 BKN200=



000
FTUS41 KBGM 242325
TAFITH
TAF
KITH 242325Z 2500/2524 VRB05KT P6SM SCT070 BKN200
     FM250700 12004KT P6SM OVC090
     FM251400 19009KT P6SM OVC090
     FM251700 20011KT P6SM BKN090 BKN200=



000
FTUS41 KBGM 241738
TAFBGM
TAF
KBGM 241738Z 2418/2518 26008KT P6SM SCT250
     FM250100 20005KT P6SM SCT150 BKN200
     FM250800 17007KT P6SM BKN100
     FM251400 21009KT P6SM BKN100=



000
FTUS41 KBGM 241738
TAFSYR
TAF
KSYR 241738Z 2418/2518 26010KT P6SM SCT250
     FM250000 18007KT P6SM SCT150 BKN200
     FM250800 13004KT P6SM OVC100
     FM251400 16009KT P6SM OVC100=



000
FTUS41 KBGM 241738
TAFAVP
TAF
KAVP 241738Z 2418/2518 25008KT P6SM FEW250
     FM250100 16003KT P6SM SCT120 BKN180
     FM251400 23007KT P6SM BKN200=



000
FTUS41 KBGM 241738
TAFELM
TAF
KELM 241738Z 2418/2518 25007KT P6SM SCT250
     FM250000 23003KT P6SM SCT120 BKN200
     FM250600 00000KT P6SM BKN060 OVC100
     FM251400 23009KT P6SM BKN100=



000
FTUS41 KBGM 241738
TAFITH
TAF
KITH 241738Z 2418/2518 26008KT P6SM SCT250
     FM250000 15005KT P6SM SCT120 BKN200
     FM250600 12004KT P6SM OVC090
     FM251400 19009KT P6SM OVC100=



000
FTUS41 KBGM 241120
TAFBGM
TAF
KBGM 241120Z 2412/2512 23006KT P6SM SKC
     FM241500 26008KT P6SM SCT250
     FM250100 20005KT P6SM SCT150 BKN200
     FM250800 17007KT P6SM BKN050 OVC090=



000
FTUS41 KBGM 241120
TAFITH
TAF
KITH 241120Z 2412/2512 12003KT P6SM SKC
     FM241400 26008KT P6SM SCT250
     FM250000 15005KT P6SM SCT120 BKN200
     FM250600 12004KT P6SM BKN050 OVC090=



000
FTUS41 KBGM 241120
TAFAVP
TAF
KAVP 241120Z 2412/2512 14003KT P6SM SKC
     FM241300 25008KT P6SM FEW250
     FM250100 16003KT P6SM SCT120 BKN180=



000
FTUS41 KBGM 241120
TAFSYR
TAF
KSYR 241120Z 2412/2512 24008KT P6SM FEW250
     FM241600 26012G18KT P6SM SCT250
     FM250000 18007KT P6SM SCT150 BKN200
     FM250800 13004KT P6SM OVC050=



000
FTUS41 KBGM 241120
TAFELM
TAF
KELM 241120Z 2412/2512 00000KT P6SM SKC
     FM241400 25007KT P6SM SCT250
     FM250000 23003KT P6SM SCT120 BKN200
     FM250600 00000KT P6SM BKN060 OVC100=



000
FTUS41 KBGM 240857 AAA
TAFAVP
TAF AMD
KAVP 240857Z 2409/2506 14003KT P6SM SKC
     FM241300 25008KT P6SM FEW250
     FM250100 16003KT P6SM FEW150 SCT200=



000
FTUS41 KBGM 240857 AAA
TAFITH
TAF AMD
KITH 240857Z 2409/2506 12003KT P6SM SKC
     FM241400 26008KT P6SM SCT250
     FM250000 15005KT P6SM SCT120 BKN200=



000
FTUS41 KBGM 240857 AAA
TAFSYR
TAF AMD
KSYR 240857Z 2409/2506 20006KT P6SM SKC
     FM241200 24008KT P6SM FEW250
     FM241600 26012G18KT P6SM SCT250
     FM250000 19007KT P6SM SCT150 BKN200=



000
FTUS41 KBGM 240857 AAA
TAFELM
TAF AMD
KELM 240857Z 2409/2506 00000KT P6SM SKC
     FM241400 25007KT P6SM SCT250
     FM250000 23002KT P6SM SCT120 BKN200=



000
FTUS41 KBGM 240857 AAA
TAFBGM
TAF AMD
KBGM 240857Z 2409/2506 23006KT P6SM SKC
     FM241500 26008KT P6SM SCT250
     FM250100 20005KT P6SM SCT150 BKN200=



000
FTUS41 KBGM 240520
TAFBGM
TAF
KBGM 240520Z 2406/2506 23006KT P6SM SKC
     FM241500 26008KT P6SM SCT250
     FM250100 20005KT P6SM SCT150 BKN200=



000
FTUS41 KBGM 240520
TAFSYR
TAF
KSYR 240520Z 2406/2506 20006KT P6SM SKC
     FM241200 24008KT P6SM FEW250
     FM241600 26012G18KT P6SM SCT250
     FM250000 19007KT P6SM SCT150 BKN200=



000
FTUS41 KBGM 240520
TAFELM
TAF
KELM 240520Z 2406/2506 00000KT P6SM SKC
     FM241400 25007KT P6SM SCT250
     FM250000 23002KT P6SM SCT120 BKN200=



000
FTUS41 KBGM 240520
TAFITH
TAF
KITH 240520Z 2406/2506 12003KT P6SM SKC
     FM241400 26008KT P6SM SCT250
     FM250000 15005KT P6SM SCT120 BKN200=



000
FTUS41 KBGM 240520
TAFSYR
TAF
KSYR 240520Z 2406/2506 20006KT P6SM SKC
     FM241200 24008KT P6SM FEW250
     FM241600 26012G18KT P6SM SCT250
     FM250000 19007KT P6SM SCT150 BKN200=



000
FTUS41 KBGM 240520
TAFBGM
TAF
KBGM 240520Z 2406/2506 23006KT P6SM SKC
     FM241500 26008KT P6SM SCT250
     FM250100 20005KT P6SM SCT150 BKN200=



000
FTUS41 KBGM 240520
TAFAVP
TAF
KAVP 240520Z 2406/2506 14003KT P6SM SKC
     FM241300 25008KT P6SM FEW250
     FM250100 16003KT P6SM FEW150 SCT200=



000
FTUS41 KBGM 240520
TAFAVP
TAF
KAVP 240520Z 2406/2506 14003KT P6SM SKC
     FM241300 25008KT P6SM FEW250
     FM250100 16003KT P6SM FEW150 SCT200=



000
FTUS41 KBGM 240520
TAFITH
TAF
KITH 240520Z 2406/2506 12003KT P6SM SKC
     FM241400 26008KT P6SM SCT250
     FM250000 15005KT P6SM SCT120 BKN200=



000
FTUS41 KBGM 240520
TAFELM
TAF
KELM 240520Z 2406/2506 00000KT P6SM SKC
     FM241400 25007KT P6SM SCT250
     FM250000 23002KT P6SM SCT120 BKN200=



000
FTUS41 KBGM 232320
TAFSYR
TAF
KSYR 232320Z 2400/2424 23006KT P6SM SKC
     FM241300 26008KT P6SM FEW250
     FM241600 26012G20KT P6SM BKN250=



000
FTUS41 KBGM 232320
TAFAVP
TAF
KAVP 232320Z 2400/2424 15003KT P6SM SKC
     FM241400 25008KT P6SM SKC=



000
FTUS41 KBGM 232320
TAFBGM
TAF
KBGM 232320Z 2400/2424 22005KT P6SM SKC
     FM241500 26008KT P6SM SCT250=



000
FTUS41 KBGM 232320
TAFELM
TAF
KELM 232320Z 2400/2424 00000KT P6SM SKC
     FM241500 26007KT P6SM SCT250=



000
FTUS41 KBGM 232320
TAFAVP
TAF
KAVP 232320Z 2400/2424 15003KT P6SM SKC
     FM241400 25008KT P6SM SKC=



000
FTUS41 KBGM 232320
TAFITH
TAF
KITH 232320Z 2400/2424 VRB03KT P6SM SKC
     FM241730 26007KT P6SM SCT250=



000
FTUS41 KBGM 231738
TAFAVP
TAF
KAVP 231738Z 2318/2418 29010KT P6SM SKC
     FM240000 00000KT P6SM SKC
     FM241500 22006KT P6SM SKC
     FM241730 26008KT P6SM SKC=



000
FTUS41 KBGM 231738
TAFSYR
TAF
KSYR 231738Z 2318/2418 28011KT P6SM SKC
     FM240000 23006KT P6SM SCT120
     FM241500 26011KT P6SM FEW250=



000
FTUS41 KBGM 231738
TAFELM
TAF
KELM 231738Z 2318/2418 28008KT P6SM SKC
     FM240000 00000KT P6SM SKC
     FM241500 25008KT P6SM SKC=



000
FTUS41 KBGM 231738
TAFBGM
TAF
KBGM 231738Z 2318/2418 28008KT P6SM SKC
     FM240000 23005KT P6SM SKC
     FM241500 26007KT P6SM SKC=



000
FTUS41 KBGM 231738
TAFITH
TAF
KITH 231738Z 2318/2418 28009KT P6SM SKC
     FM240000 16005KT P6SM SKC
     FM241730 27008KT P6SM SKC=



000
FTUS41 KBGM 231738
TAFBGM
TAF
KBGM 231738Z 2318/2418 28008KT P6SM SKC
     FM240000 23005KT P6SM SKC
     FM241500 26007KT P6SM SKC=



000
FTUS41 KBGM 231738
TAFELM
TAF
KELM 231738Z 2318/2418 28008KT P6SM SKC
     FM240000 00000KT P6SM SKC
     FM241500 25008KT P6SM SKC=



000
FTUS41 KBGM 231738
TAFAVP
TAF
KAVP 231738Z 2318/2418 29010KT P6SM SKC
     FM240000 00000KT P6SM SKC
     FM241500 22006KT P6SM SKC
     FM241730 26008KT P6SM SKC=



000
FTUS41 KBGM 231738
TAFITH
TAF
KITH 231738Z 2318/2418 28009KT P6SM SKC
     FM240000 16005KT P6SM SKC
     FM241730 27008KT P6SM SKC=



000
FTUS41 KBGM 231738
TAFSYR
TAF
KSYR 231738Z 2318/2418 28011KT P6SM SKC
     FM240000 23006KT P6SM SCT120
     FM241500 26011KT P6SM FEW250=



000
FTUS41 KBGM 231120
TAFAVP
TAF
KAVP 231120Z 2312/2412 32005KT P6SM SKC
     FM231500 29010KT P6SM SKC
     FM240100 VRB04KT P6SM SKC=



000
FTUS41 KBGM 231120
TAFSYR
TAF
KSYR 231120Z 2312/2412 26006KT P6SM SKC
     FM231500 28011KT P6SM SKC
     FM240100 23006KT P6SM SCT120=



000
FTUS41 KBGM 231120
TAFELM
TAF
KELM 231120Z 2312/2412 VRB03KT P6SM SKC
     FM231600 28008KT P6SM SKC
     FM240000 VRB02KT P6SM SKC=



000
FTUS41 KBGM 231120
TAFITH
TAF
KITH 231120Z 2312/2412 VRB02KT P6SM SKC
     FM231500 28009KT P6SM SKC
     FM240000 VRB03KT P6SM SKC=



000
FTUS41 KBGM 231120
TAFAVP
TAF
KAVP 231120Z 2312/2412 32005KT P6SM SKC
     FM231500 29010KT P6SM SKC
     FM240100 VRB04KT P6SM SKC=



000
FTUS41 KBGM 231120
TAFBGM
TAF
KBGM 231120Z 2312/2412 28008KT P6SM SKC
     FM240100 24005KT P6SM SKC=



000
FTUS41 KBGM 231120
TAFITH
TAF
KITH 231120Z 2312/2412 VRB02KT P6SM SKC
     FM231500 28009KT P6SM SKC
     FM240000 VRB03KT P6SM SKC=



000
FTUS41 KBGM 231120
TAFSYR
TAF
KSYR 231120Z 2312/2412 26006KT P6SM SKC
     FM231500 28011KT P6SM SKC
     FM240100 23006KT P6SM SCT120=



000
FTUS41 KBGM 231120
TAFBGM
TAF
KBGM 231120Z 2312/2412 28008KT P6SM SKC
     FM240100 24005KT P6SM SKC=



000
FTUS41 KBGM 231120
TAFELM
TAF
KELM 231120Z 2312/2412 VRB03KT P6SM SKC
     FM231600 28008KT P6SM SKC
     FM240000 VRB02KT P6SM SKC=



000
FTUS41 KBGM 230854 AAA
TAFAVP
TAF AMD
KAVP 230854Z 2309/2406 29004KT P6SM SKC
     FM231400 30009KT P6SM SKC
     FM240100 VRB04KT P6SM SKC=



000
FTUS41 KBGM 230854 AAA
TAFBGM
TAF AMD
KBGM 230854Z 2309/2406 30003KT P6SM SKC
     FM231500 28008KT P6SM SKC
     FM240100 24005KT P6SM SKC=



000
FTUS41 KBGM 230854 AAA
TAFSYR
TAF AMD
KSYR 230854Z 2309/2406 28005KT P6SM SKC
     FM231500 28011KT P6SM SKC
     FM240100 23006KT P6SM SCT120=



000
FTUS41 KBGM 230854 AAA
TAFITH
TAF AMD
KITH 230854Z 2309/2406 VRB02KT P6SM SKC
     FM231500 28009KT P6SM SKC
     FM240000 VRB03KT P6SM SKC=



000
FTUS41 KBGM 230854 AAA
TAFELM
TAF AMD
KELM 230854Z 2309/2406 26003KT P6SM SKC
     FM231600 28008KT P6SM SKC
     FM240000 VRB02KT P6SM SKC=



000
FTUS41 KBGM 230854 AAA
TAFITH
TAF AMD
KITH 230854Z 2309/2406 VRB02KT P6SM SKC
     FM231500 28009KT P6SM SKC
     FM240000 VRB03KT P6SM SKC=



000
FTUS41 KBGM 230854 AAA
TAFBGM
TAF AMD
KBGM 230854Z 2309/2406 30003KT P6SM SKC
     FM231500 28008KT P6SM SKC
     FM240100 24005KT P6SM SKC=



000
FTUS41 KBGM 230854 AAA
TAFAVP
TAF AMD
KAVP 230854Z 2309/2406 29004KT P6SM SKC
     FM231400 30009KT P6SM SKC
     FM240100 VRB04KT P6SM SKC=



000
FTUS41 KBGM 230854 AAA
TAFELM
TAF AMD
KELM 230854Z 2309/2406 26003KT P6SM SKC
     FM231600 28008KT P6SM SKC
     FM240000 VRB02KT P6SM SKC=



000
FTUS41 KBGM 230854 AAA
TAFSYR
TAF AMD
KSYR 230854Z 2309/2406 28005KT P6SM SKC
     FM231500 28011KT P6SM SKC
     FM240100 23006KT P6SM SCT120=



000
FTUS41 KBGM 230522
TAFELM
TAF
KELM 230522Z 2306/2406 26003KT P6SM SKC
     FM231600 28008KT P6SM SKC
     FM240000 VRB02KT P6SM SKC=



000
FTUS41 KBGM 230522
TAFSYR
TAF
KSYR 230522Z 2306/2406 28006KT P6SM FEW060
     FM231500 28011KT P6SM SKC
     FM240100 23006KT P6SM SCT120=



000
FTUS41 KBGM 230522
TAFBGM
TAF
KBGM 230522Z 2306/2406 31006KT P6SM SKC
     FM231500 28008KT P6SM SKC
     FM240100 24005KT P6SM SKC=



000
FTUS41 KBGM 230522
TAFAVP
TAF
KAVP 230522Z 2306/2406 35007KT P6SM SKC
     FM231400 30009KT P6SM SKC
     FM240100 VRB04KT P6SM SKC=



000
FTUS41 KBGM 230522
TAFITH
TAF
KITH 230522Z 2306/2406 VRB03KT P6SM SKC
     FM231500 28009KT P6SM SKC
     FM240000 VRB03KT P6SM SKC=



000
FTUS41 KBGM 230328 AAB
TAFBGM
TAF AMD
KBGM 230328Z 2303/2324 31007G14KT P6SM SCT060
     FM230600 30006KT P6SM SKC
     FM231500 28008KT P6SM SKC=



000
FTUS41 KBGM 230001 AAA
TAFAVP
TAF AMD
KAVP 230001Z 2300/2324 34012KT P6SM SKC
     FM230500 VRB06KT P6SM SKC
     FM231500 30009KT P6SM SKC=



000
FTUS41 KBGM 230001 AAA
TAFAVP
TAF AMD
KAVP 230001Z 2300/2324 34012KT P6SM SKC
     FM230500 VRB06KT P6SM SKC
     FM231500 30009KT P6SM SKC=



000
FTUS41 KBGM 222328
TAFBGM
TAF
KBGM 222328Z 2300/2324 32011KT P6SM SCT060
     FM230300 VRB06KT P6SM SKC
     FM231500 28008KT P6SM SKC=



000
FTUS41 KBGM 222328
TAFAVP
TAF
KAVP 222328Z 2300/2324 32011KT P6SM SKC
     FM230500 VRB06KT P6SM SKC
     FM231500 30009KT P6SM SKC=



000
FTUS41 KBGM 222328
TAFSYR
TAF
KSYR 222328Z 2300/2324 29011KT P6SM SCT070
     FM231500 29010KT P6SM SKC=



000
FTUS41 KBGM 222328
TAFELM
TAF
KELM 222328Z 2300/2324 30011KT P6SM SCT060
     FM230300 VRB04KT P6SM SKC
     FM231600 28009KT P6SM SKC=



000
FTUS41 KBGM 222328
TAFITH
TAF
KITH 222328Z 2300/2324 31011KT P6SM SCT060
     FM230300 VRB05KT P6SM SKC
     FM231500 30011KT P6SM SKC=



000
FTUS41 KBGM 222328
TAFSYR
TAF
KSYR 222328Z 2300/2324 29011KT P6SM SCT070
     FM231500 29010KT P6SM SKC=



000
FTUS41 KBGM 222328
TAFELM
TAF
KELM 222328Z 2300/2324 30011KT P6SM SCT060
     FM230300 VRB04KT P6SM SKC
     FM231600 28009KT P6SM SKC=



000
FTUS41 KBGM 222328
TAFAVP
TAF
KAVP 222328Z 2300/2324 32011KT P6SM SKC
     FM230500 VRB06KT P6SM SKC
     FM231500 30009KT P6SM SKC=



000
FTUS41 KBGM 222328
TAFBGM
TAF
KBGM 222328Z 2300/2324 32011KT P6SM SCT060
     FM230300 VRB06KT P6SM SKC
     FM231500 28008KT P6SM SKC=



000
FTUS41 KBGM 222328
TAFITH
TAF
KITH 222328Z 2300/2324 31011KT P6SM SCT060
     FM230300 VRB05KT P6SM SKC
     FM231500 30011KT P6SM SKC=



000
FTUS41 KBGM 222222 AAB
TAFBGM
TAF AMD
KBGM 222222Z 2222/2318 33012G22KT P6SM SCT060
     FM230100 30005KT P6SM SKC
     FM231500 28008KT P6SM SKC=



000
FTUS41 KBGM 222222 AAB
TAFBGM
TAF AMD
KBGM 222222Z 2222/2318 33012G22KT P6SM SCT060
     FM230100 30005KT P6SM SKC
     FM231500 28008KT P6SM SKC=



000
FTUS41 KBGM 222057 AAA
TAFAVP
TAF AMD
KAVP 222057Z 2221/2318 31012G20KT P6SM BKN070
     FM230100 30005KT P6SM SKC=



000
FTUS41 KBGM 221728
TAFITH
TAF
KITH 221728Z 2218/2318 31010G20KT P6SM SCT040
     FM230100 30004KT P6SM SKC
     FM231500 31008KT P6SM SKC=



000
FTUS41 KBGM 221728
TAFITH
TAF
KITH 221728Z 2218/2318 31010G20KT P6SM SCT040
     FM230100 30004KT P6SM SKC
     FM231500 31008KT P6SM SKC=



000
FTUS41 KBGM 221728
TAFBGM
TAF
KBGM 221728Z 2218/2318 31012G22KT P6SM SCT060
      TEMPO 2221/2301 BKN050
     FM230100 30005KT P6SM SKC
     FM231500 28008KT P6SM SKC=



000
FTUS41 KBGM 221728
TAFAVP
TAF
KAVP 221728Z 2218/2318 29010G20KT P6SM BKN070
     FM230100 30005KT P6SM SKC=



000
FTUS41 KBGM 221728
TAFELM
TAF
KELM 221728Z 2218/2318 31010G20KT P6SM SCT060
     FM230000 30006KT P6SM SKC
     FM230600 VRB04KT P6SM SKC
     FM231600 28005KT P6SM SKC=



000
FTUS41 KBGM 221728
TAFSYR
TAF
KSYR 221728Z 2218/2318 30015G23KT P6SM SCT060
     FM230000 27004KT P6SM SKC
     FM231500 29010KT P6SM SKC=



000
FTUS41 KBGM 221728
TAFSYR
TAF
KSYR 221728Z 2218/2318 30015G23KT P6SM SCT060
     FM230000 27004KT P6SM SKC
     FM231500 29010KT P6SM SKC=



000
FTUS41 KBGM 221728
TAFBGM
TAF
KBGM 221728Z 2218/2318 31012G22KT P6SM SCT060
      TEMPO 2221/2301 BKN050
     FM230100 30005KT P6SM SKC
     FM231500 28008KT P6SM SKC=



000
FTUS41 KBGM 221728
TAFELM
TAF
KELM 221728Z 2218/2318 31010G20KT P6SM SCT060
     FM230000 30006KT P6SM SKC
     FM230600 VRB04KT P6SM SKC
     FM231600 28005KT P6SM SKC=



000
FTUS41 KBGM 221728
TAFAVP
TAF
KAVP 221728Z 2218/2318 29010G20KT P6SM BKN070
     FM230100 30005KT P6SM SKC=



    US Dept of Commerce
    National Oceanic and Atmospheric Administration
    National Weather Service
    1325 East West Highway
    Silver Spring, MD 20910
    Page Author: NWS Internet Services Team
Disclaimer
Information Quality
Credits
Glossary
Privacy Policy
Freedom of Information Act (FOIA)
About Us
Career Opportunities